Albany, New York
Traffic Map
Current Weather Conditions
Albany, New York
Few Clouds
Few Clouds

Feels Like: 8°
Wind Chill: Ceiling: Unl
Heat Index: Visibility: 10mi
Dew Point: Wind: 6mph
Humidity: 80% Direction: 230° (SW)
Pressure: 30.28in Gusts: 0mph
Raw Report DataKALB 231151Z 23005KT 10SM FEW030 FEW250 09/06 A3028 RMK AO2 SLP253 T00940061 10094 20044 52017 $
Traffic Incident Summary
Active as of:
Severity:
Category:
InformationThere was an issue retrieving the traffic information for this location. Please try a different location or try again shortly.
Advertisements
Track Severe Weather on mobile